sensor_id;sensor_type;location;lat;lon;timestamp;P1;durP1;ratioP1;P2;durP2;ratioP2
70169;SDS011;57543;45.442;9.212;2023-04-02T00:00:14;4.75;;;2.40;;
70169;SDS011;57543;45.442;9.212;2023-04-02T00:03:17;5.80;;;2.90;;
70169;SDS011;57543;45.442;9.212;2023-04-02T00:09:29;6.85;;;2.42;;
70169;SDS011;57543;45.442;9.212;2023-04-02T00:12:35;6.00;;;2.70;;
70169;SDS011;57543;45.442;9.212;2023-04-02T00:15:40;5.82;;;2.55;;
70169;SDS011;57543;45.442;9.212;2023-04-02T00:18:47;4.40;;;2.40;;
70169;SDS011;57543;45.442;9.212;2023-04-02T00:21:55;4.68;;;2.60;;
70169;SDS011;57543;45.442;9.212;2023-04-02T00:25:01;5.28;;;2.83;;
70169;SDS011;57543;45.442;9.212;2023-04-02T00:28:14;5.95;;;3.13;;
70169;SDS011;57543;45.442;9.212;2023-04-02T00:31:20;7.45;;;3.38;;
70169;SDS011;57543;45.442;9.212;2023-04-02T00:34:29;6.20;;;3.37;;
70169;SDS011;57543;45.442;9.212;2023-04-02T00:37:35;9.10;;;4.45;;
70169;SDS011;57543;45.442;9.212;2023-04-02T00:40:44;9.25;;;4.72;;
70169;SDS011;57543;45.442;9.212;2023-04-02T00:43:48;10.32;;;5.45;;
70169;SDS011;57543;45.442;9.212;2023-04-02T00:46:53;11.60;;;6.05;;
70169;SDS011;57543;45.442;9.212;2023-04-02T00:53:21;10.55;;;5.97;;
70169;SDS011;57543;45.442;9.212;2023-04-02T00:56:51;12.20;;;5.80;;
70169;SDS011;57543;45.442;9.212;2023-04-02T00:59:59;11.02;;;5.93;;
70169;SDS011;57543;45.442;9.212;2023-04-02T01:06:25;13.63;;;6.33;;
70169;SDS011;57543;45.442;9.212;2023-04-02T01:09:58;12.73;;;6.78;;
70169;SDS011;57543;45.442;9.212;2023-04-02T01:27:00;19.98;;;9.75;;
70169;SDS011;57543;45.442;9.212;2023-04-02T01:30:06;17.70;;;10.10;;
70169;SDS011;57543;45.442;9.212;2023-04-02T01:33:14;20.58;;;10.10;;
70169;SDS011;57543;45.442;9.212;2023-04-02T01:46:26;18.98;;;10.35;;
70169;SDS011;57543;45.442;9.212;2023-04-02T01:49:33;19.38;;;9.65;;
70169;SDS011;57543;45.442;9.212;2023-04-02T01:52:38;19.00;;;10.18;;
70169;SDS011;57543;45.442;9.212;2023-04-02T01:55:48;18.00;;;9.60;;
70169;SDS011;57543;45.442;9.212;2023-04-02T01:58:57;18.65;;;9.52;;
70169;SDS011;57543;45.442;9.212;2023-04-02T02:02:06;17.65;;;9.07;;
70169;SDS011;57543;45.442;9.212;2023-04-02T02:05:16;16.58;;;8.95;;
70169;SDS011;57543;45.442;9.212;2023-04-02T02:08:32;17.20;;;8.00;;
70169;SDS011;57543;45.442;9.212;2023-04-02T02:11:58;18.67;;;9.10;;
70169;SDS011;57543;45.442;9.212;2023-04-02T02:15:06;14.10;;;8.20;;
70169;SDS011;57543;45.442;9.212;2023-04-02T02:18:18;18.05;;;9.07;;
70169;SDS011;57543;45.442;9.212;2023-04-02T02:21:42;17.48;;;9.00;;
70169;SDS011;57543;45.442;9.212;2023-04-02T02:24:47;15.57;;;8.50;;
70169;SDS011;57543;45.442;9.212;2023-04-02T02:28:02;14.80;;;8.63;;
70169;SDS011;57543;45.442;9.212;2023-04-02T02:31:20;18.75;;;9.25;;
70169;SDS011;57543;45.442;9.212;2023-04-02T02:34:32;18.20;;;9.57;;
70169;SDS011;57543;45.442;9.212;2023-04-02T02:37:45;16.63;;;9.25;;
70169;SDS011;57543;45.442;9.212;2023-04-02T02:40:55;17.75;;;9.73;;
70169;SDS011;57543;45.442;9.212;2023-04-02T02:44:05;16.93;;;9.87;;
70169;SDS011;57543;45.442;9.212;2023-04-02T02:47:18;18.90;;;10.25;;
70169;SDS011;57543;45.442;9.212;2023-04-02T02:50:27;17.58;;;10.25;;
70169;SDS011;57543;45.442;9.212;2023-04-02T02:53:35;19.35;;;10.43;;
70169;SDS011;57543;45.442;9.212;2023-04-02T02:56:51;17.85;;;10.07;;
70169;SDS011;57543;45.442;9.212;2023-04-02T02:59:59;17.23;;;10.37;;
70169;SDS011;57543;45.442;9.212;2023-04-02T03:03:07;20.63;;;10.73;;
70169;SDS011;57543;45.442;9.212;2023-04-02T03:06:15;17.48;;;10.07;;
70169;SDS011;57543;45.442;9.212;2023-04-02T03:09:35;19.15;;;9.52;;
70169;SDS011;57543;45.442;9.212;2023-04-02T03:16:33;21.20;;;10.70;;
70169;SDS011;57543;45.442;9.212;2023-04-02T03:19:45;19.20;;;9.95;;
70169;SDS011;57543;45.442;9.212;2023-04-02T03:23:27;20.48;;;10.73;;
70169;SDS011;57543;45.442;9.212;2023-04-02T03:26:38;21.50;;;11.38;;
70169;SDS011;57543;45.442;9.212;2023-04-02T03:29:48;24.55;;;11.07;;
70169;SDS011;57543;45.442;9.212;2023-04-02T03:33:29;22.67;;;11.00;;
70169;SDS011;57543;45.442;9.212;2023-04-02T03:36:39;18.83;;;10.27;;
70169;SDS011;57543;45.442;9.212;2023-04-02T03:39:52;22.75;;;11.65;;
70169;SDS011;57543;45.442;9.212;2023-04-02T03:43:03;20.35;;;10.38;;
70169;SDS011;57543;45.442;9.212;2023-04-02T03:53:04;21.33;;;10.70;;
70169;SDS011;57543;45.442;9.212;2023-04-02T03:56:10;20.70;;;11.07;;
70169;SDS011;57543;45.442;9.212;2023-04-02T03:59:45;21.55;;;10.57;;
70169;SDS011;57543;45.442;9.212;2023-04-02T04:02:57;23.35;;;11.20;;
70169;SDS011;57543;45.442;9.212;2023-04-02T04:06:27;20.53;;;11.03;;
70169;SDS011;57543;45.442;9.212;2023-04-02T04:09:35;21.17;;;10.73;;
70169;SDS011;57543;45.442;9.212;2023-04-02T04:12:43;20.90;;;11.60;;
70169;SDS011;57543;45.442;9.212;2023-04-02T04:15:54;27.13;;;11.50;;
70169;SDS011;57543;45.442;9.212;2023-04-02T04:19:03;19.98;;;10.65;;
70169;SDS011;57543;45.442;9.212;2023-04-02T04:22:15;22.13;;;12.03;;
70169;SDS011;57543;45.442;9.212;2023-04-02T04:25:28;21.85;;;12.10;;
70169;SDS011;57543;45.442;9.212;2023-04-02T04:28:46;22.80;;;12.27;;
70169;SDS011;57543;45.442;9.212;2023-04-02T04:32:20;23.23;;;12.07;;
70169;SDS011;57543;45.442;9.212;2023-04-02T04:35:45;24.42;;;12.10;;
70169;SDS011;57543;45.442;9.212;2023-04-02T04:38:54;24.60;;;12.90;;
70169;SDS011;57543;45.442;9.212;2023-04-02T04:42:02;24.35;;;12.75;;
70169;SDS011;57543;45.442;9.212;2023-04-02T04:48:28;23.83;;;12.57;;
70169;SDS011;57543;45.442;9.212;2023-04-02T04:51:55;23.73;;;12.55;;
70169;SDS011;57543;45.442;9.212;2023-04-02T04:55:21;25.90;;;12.30;;
70169;SDS011;57543;45.442;9.212;2023-04-02T04:58:44;22.50;;;12.73;;
70169;SDS011;57543;45.442;9.212;2023-04-02T05:05:28;26.33;;;12.50;;
70169;SDS011;57543;45.442;9.212;2023-04-02T05:08:37;21.90;;;11.77;;
70169;SDS011;57543;45.442;9.212;2023-04-02T05:11:56;23.40;;;12.90;;
70169;SDS011;57543;45.442;9.212;2023-04-02T05:15:19;23.92;;;12.38;;
70169;SDS011;57543;45.442;9.212;2023-04-02T05:22:12;25.55;;;12.32;;
70169;SDS011;57543;45.442;9.212;2023-04-02T05:25:25;23.13;;;12.50;;
70169;SDS011;57543;45.442;9.212;2023-04-02T05:28:35;23.83;;;12.20;;
70169;SDS011;57543;45.442;9.212;2023-04-02T05:35:09;25.70;;;12.32;;
70169;SDS011;57543;45.442;9.212;2023-04-02T05:38:20;26.25;;;12.05;;
70169;SDS011;57543;45.442;9.212;2023-04-02T05:41:27;26.38;;;13.40;;
70169;SDS011;57543;45.442;9.212;2023-04-02T05:44:38;27.00;;;13.27;;
70169;SDS011;57543;45.442;9.212;2023-04-02T05:47:51;23.52;;;13.55;;
70169;SDS011;57543;45.442;9.212;2023-04-02T05:51:07;25.25;;;12.93;;
70169;SDS011;57543;45.442;9.212;2023-04-02T05:54:22;25.80;;;13.23;;
70169;SDS011;57543;45.442;9.212;2023-04-02T05:57:37;24.38;;;12.68;;
70169;SDS011;57543;45.442;9.212;2023-04-02T06:01:03;26.03;;;14.00;;
70169;SDS011;57543;45.442;9.212;2023-04-02T06:07:40;27.08;;;13.55;;
70169;SDS011;57543;45.442;9.212;2023-04-02T06:10:55;28.27;;;14.07;;
70169;SDS011;57543;45.442;9.212;2023-04-02T06:14:04;26.45;;;14.48;;
70169;SDS011;57543;45.442;9.212;2023-04-02T06:17:10;27.60;;;14.57;;
70169;SDS011;57543;45.442;9.212;2023-04-02T06:20:18;26.73;;;13.57;;
70169;SDS011;57543;45.442;9.212;2023-04-02T06:26:37;29.77;;;15.00;;
70169;SDS011;57543;45.442;9.212;2023-04-02T06:29:44;27.15;;;13.75;;
70169;SDS011;57543;45.442;9.212;2023-04-02T06:32:54;26.33;;;13.97;;
70169;SDS011;57543;45.442;9.212;2023-04-02T06:35:58;27.00;;;13.98;;
70169;SDS011;57543;45.442;9.212;2023-04-02T06:39:09;26.17;;;14.50;;
70169;SDS011;57543;45.442;9.212;2023-04-02T06:42:33;27.92;;;14.48;;
70169;SDS011;57543;45.442;9.212;2023-04-02T06:45:47;30.45;;;15.70;;
70169;SDS011;57543;45.442;9.212;2023-04-02T06:49:24;30.40;;;14.20;;
70169;SDS011;57543;45.442;9.212;2023-04-02T06:52:47;30.65;;;15.70;;
70169;SDS011;57543;45.442;9.212;2023-04-02T06:59:26;28.17;;;14.68;;
70169;SDS011;57543;45.442;9.212;2023-04-02T07:02:34;31.00;;;15.13;;
70169;SDS011;57543;45.442;9.212;2023-04-02T07:05:44;32.93;;;16.37;;
70169;SDS011;57543;45.442;9.212;2023-04-02T07:08:48;28.27;;;14.70;;
70169;SDS011;57543;45.442;9.212;2023-04-02T07:11:52;31.13;;;15.63;;
70169;SDS011;57543;45.442;9.212;2023-04-02T07:14:57;27.52;;;15.18;;
70169;SDS011;57543;45.442;9.212;2023-04-02T07:18:01;29.85;;;15.50;;
70169;SDS011;57543;45.442;9.212;2023-04-02T07:21:05;31.93;;;16.20;;
70169;SDS011;57543;45.442;9.212;2023-04-02T07:24:09;29.05;;;16.23;;
70169;SDS011;57543;45.442;9.212;2023-04-02T07:27:13;32.00;;;16.50;;
70169;SDS011;57543;45.442;9.212;2023-04-02T07:30:17;34.65;;;17.15;;
70169;SDS011;57543;45.442;9.212;2023-04-02T07:33:21;34.28;;;16.83;;
70169;SDS011;57543;45.442;9.212;2023-04-02T07:36:27;33.93;;;16.27;;
70169;SDS011;57543;45.442;9.212;2023-04-02T07:39:31;33.10;;;16.45;;
70169;SDS011;57543;45.442;9.212;2023-04-02T07:42:35;30.90;;;16.15;;
70169;SDS011;57543;45.442;9.212;2023-04-02T07:45:38;29.25;;;15.70;;
70169;SDS011;57543;45.442;9.212;2023-04-02T07:48:43;28.05;;;14.30;;
70169;SDS011;57543;45.442;9.212;2023-04-02T07:51:48;27.70;;;14.70;;
70169;SDS011;57543;45.442;9.212;2023-04-02T07:54:51;28.98;;;15.88;;
70169;SDS011;57543;45.442;9.212;2023-04-02T07:57:56;31.23;;;15.32;;
70169;SDS011;57543;45.442;9.212;2023-04-02T08:01:00;25.60;;;13.45;;
70169;SDS011;57543;45.442;9.212;2023-04-02T08:04:08;22.45;;;12.43;;
70169;SDS011;57543;45.442;9.212;2023-04-02T08:07:19;28.07;;;13.57;;
70169;SDS011;57543;45.442;9.212;2023-04-02T08:10:23;29.92;;;14.77;;
70169;SDS011;57543;45.442;9.212;2023-04-02T08:13:27;25.70;;;14.13;;
70169;SDS011;57543;45.442;9.212;2023-04-02T08:16:49;25.13;;;13.50;;
70169;SDS011;57543;45.442;9.212;2023-04-02T08:19:54;24.63;;;13.63;;
70169;SDS011;57543;45.442;9.212;2023-04-02T08:22:58;23.30;;;12.83;;
70169;SDS011;57543;45.442;9.212;2023-04-02T08:26:03;23.48;;;12.43;;
70169;SDS011;57543;45.442;9.212;2023-04-02T08:29:08;22.60;;;11.07;;
70169;SDS011;57543;45.442;9.212;2023-04-02T08:32:11;21.67;;;11.43;;
70169;SDS011;57543;45.442;9.212;2023-04-02T08:35:20;22.85;;;10.77;;
70169;SDS011;57543;45.442;9.212;2023-04-02T08:38:25;21.47;;;10.83;;
70169;SDS011;57543;45.442;9.212;2023-04-02T08:41:29;18.45;;;9.95;;
70169;SDS011;57543;45.442;9.212;2023-04-02T08:44:53;18.05;;;9.73;;
70169;SDS011;57543;45.442;9.212;2023-04-02T08:48:23;19.58;;;10.30;;
70169;SDS011;57543;45.442;9.212;2023-04-02T08:51:29;20.30;;;10.25;;
70169;SDS011;57543;45.442;9.212;2023-04-02T08:54:36;20.50;;;10.10;;
70169;SDS011;57543;45.442;9.212;2023-04-02T08:57:56;17.50;;;9.32;;
70169;SDS011;57543;45.442;9.212;2023-04-02T09:01:06;18.50;;;9.68;;
70169;SDS011;57543;45.442;9.212;2023-04-02T09:04:33;18.70;;;9.10;;
70169;SDS011;57543;45.442;9.212;2023-04-02T09:07:39;21.60;;;9.98;;
70169;SDS011;57543;45.442;9.212;2023-04-02T09:10:54;17.20;;;9.00;;
70169;SDS011;57543;45.442;9.212;2023-04-02T09:14:15;19.75;;;9.73;;
70169;SDS011;57543;45.442;9.212;2023-04-02T09:17:22;19.33;;;9.35;;
70169;SDS011;57543;45.442;9.212;2023-04-02T09:20:27;18.95;;;10.55;;
70169;SDS011;57543;45.442;9.212;2023-04-02T09:23:32;21.38;;;9.85;;
70169;SDS011;57543;45.442;9.212;2023-04-02T09:26:36;18.83;;;9.23;;
70169;SDS011;57543;45.442;9.212;2023-04-02T09:29:43;16.40;;;8.65;;
70169;SDS011;57543;45.442;9.212;2023-04-02T09:32:49;15.45;;;7.65;;
70169;SDS011;57543;45.442;9.212;2023-04-02T09:35:55;14.85;;;6.90;;
70169;SDS011;57543;45.442;9.212;2023-04-02T09:39:01;14.90;;;6.93;;
70169;SDS011;57543;45.442;9.212;2023-04-02T09:45:40;12.85;;;6.50;;
70169;SDS011;57543;45.442;9.212;2023-04-02T09:52:15;12.63;;;6.10;;
70169;SDS011;57543;45.442;9.212;2023-04-02T09:55:27;11.05;;;5.68;;
70169;SDS011;57543;45.442;9.212;2023-04-02T09:58:33;12.83;;;6.23;;
70169;SDS011;57543;45.442;9.212;2023-04-02T10:01:38;10.68;;;5.60;;
70169;SDS011;57543;45.442;9.212;2023-04-02T10:04:44;9.15;;;5.28;;
70169;SDS011;57543;45.442;9.212;2023-04-02T10:07:50;11.38;;;5.60;;
70169;SDS011;57543;45.442;9.212;2023-04-02T10:10:56;9.32;;;4.97;;
70169;SDS011;57543;45.442;9.212;2023-04-02T10:14:04;9.47;;;4.37;;
70169;SDS011;57543;45.442;9.212;2023-04-02T10:17:24;11.63;;;5.88;;
70169;SDS011;57543;45.442;9.212;2023-04-02T10:20:32;12.00;;;6.35;;
70169;SDS011;57543;45.442;9.212;2023-04-02T10:23:37;11.18;;;6.20;;
70169;SDS011;57543;45.442;9.212;2023-04-02T10:33:44;10.23;;;5.22;;
70169;SDS011;57543;45.442;9.212;2023-04-02T10:36:50;10.80;;;6.25;;
70169;SDS011;57543;45.442;9.212;2023-04-02T10:40:06;10.85;;;5.93;;
70169;SDS011;57543;45.442;9.212;2023-04-02T10:43:25;11.18;;;6.40;;
70169;SDS011;57543;45.442;9.212;2023-04-02T10:46:43;12.00;;;6.60;;
70169;SDS011;57543;45.442;9.212;2023-04-02T10:50:19;12.80;;;6.93;;
70169;SDS011;57543;45.442;9.212;2023-04-02T10:53:45;11.20;;;6.45;;
70169;SDS011;57543;45.442;9.212;2023-04-02T10:57:01;13.63;;;7.72;;
70169;SDS011;57543;45.442;9.212;2023-04-02T11:03:36;10.13;;;5.57;;
70169;SDS011;57543;45.442;9.212;2023-04-02T11:07:04;14.95;;;6.05;;
70169;SDS011;57543;45.442;9.212;2023-04-02T11:10:11;11.30;;;6.82;;
70169;SDS011;57543;45.442;9.212;2023-04-02T11:13:21;11.90;;;6.43;;
70169;SDS011;57543;45.442;9.212;2023-04-02T11:16:39;11.70;;;5.82;;
70169;SDS011;57543;45.442;9.212;2023-04-02T11:19:43;10.73;;;6.30;;
70169;SDS011;57543;45.442;9.212;2023-04-02T11:23:02;11.65;;;6.82;;
70169;SDS011;57543;45.442;9.212;2023-04-02T11:29:40;13.55;;;7.57;;
70169;SDS011;57543;45.442;9.212;2023-04-02T11:32:46;11.65;;;6.70;;
70169;SDS011;57543;45.442;9.212;2023-04-02T11:35:51;10.03;;;5.40;;
70169;SDS011;57543;45.442;9.212;2023-04-02T11:38:55;11.43;;;6.43;;
70169;SDS011;57543;45.442;9.212;2023-04-02T11:42:00;10.93;;;5.63;;
70169;SDS011;57543;45.442;9.212;2023-04-02T11:48:36;11.48;;;6.53;;
70169;SDS011;57543;45.442;9.212;2023-04-02T11:54:53;10.35;;;5.78;;
70169;SDS011;57543;45.442;9.212;2023-04-02T12:07:50;11.63;;;6.53;;
70169;SDS011;57543;45.442;9.212;2023-04-02T12:11:01;10.63;;;6.22;;
70169;SDS011;57543;45.442;9.212;2023-04-02T12:17:35;11.23;;;5.95;;
70169;SDS011;57543;45.442;9.212;2023-04-02T12:20:40;12.48;;;7.45;;
70169;SDS011;57543;45.442;9.212;2023-04-02T12:23:50;10.87;;;6.50;;
70169;SDS011;57543;45.442;9.212;2023-04-02T12:27:06;12.38;;;6.93;;
70169;SDS011;57543;45.442;9.212;2023-04-02T12:30:21;12.63;;;7.25;;
70169;SDS011;57543;45.442;9.212;2023-04-02T12:33:27;13.07;;;7.18;;
70169;SDS011;57543;45.442;9.212;2023-04-02T12:36:32;11.75;;;7.03;;
70169;SDS011;57543;45.442;9.212;2023-04-02T12:39:36;13.03;;;6.80;;
70169;SDS011;57543;45.442;9.212;2023-04-02T12:42:40;11.05;;;6.03;;
70169;SDS011;57543;45.442;9.212;2023-04-02T12:45:44;11.52;;;6.45;;
70169;SDS011;57543;45.442;9.212;2023-04-02T12:49:02;13.43;;;7.63;;
70169;SDS011;57543;45.442;9.212;2023-04-02T12:52:09;11.55;;;7.18;;
70169;SDS011;57543;45.442;9.212;2023-04-02T12:55:16;10.40;;;6.40;;
70169;SDS011;57543;45.442;9.212;2023-04-02T12:58:31;12.40;;;7.38;;
70169;SDS011;57543;45.442;9.212;2023-04-02T13:01:38;12.85;;;8.18;;
70169;SDS011;57543;45.442;9.212;2023-04-02T13:04:58;14.98;;;8.90;;
70169;SDS011;57543;45.442;9.212;2023-04-02T13:08:04;15.52;;;8.52;;
70169;SDS011;57543;45.442;9.212;2023-04-02T13:11:08;12.10;;;6.40;;
70169;SDS011;57543;45.442;9.212;2023-04-02T13:14:16;13.00;;;7.93;;
70169;SDS011;57543;45.442;9.212;2023-04-02T13:20:57;13.05;;;8.20;;
70169;SDS011;57543;45.442;9.212;2023-04-02T13:24:02;14.55;;;8.13;;
70169;SDS011;57543;45.442;9.212;2023-04-02T13:27:08;11.07;;;6.50;;
70169;SDS011;57543;45.442;9.212;2023-04-02T13:30:17;11.50;;;6.45;;
70169;SDS011;57543;45.442;9.212;2023-04-02T13:33:25;12.98;;;6.90;;
70169;SDS011;57543;45.442;9.212;2023-04-02T13:36:28;13.73;;;8.23;;
70169;SDS011;57543;45.442;9.212;2023-04-02T13:39:32;17.05;;;8.07;;
70169;SDS011;57543;45.442;9.212;2023-04-02T13:42:36;13.67;;;7.00;;
70169;SDS011;57543;45.442;9.212;2023-04-02T13:45:40;11.02;;;7.22;;
70169;SDS011;57543;45.442;9.212;2023-04-02T13:48:44;12.57;;;7.70;;
70169;SDS011;57543;45.442;9.212;2023-04-02T13:51:50;11.05;;;7.15;;
70169;SDS011;57543;45.442;9.212;2023-04-02T13:54:56;12.43;;;7.50;;
70169;SDS011;57543;45.442;9.212;2023-04-02T13:58:03;13.60;;;7.47;;
70169;SDS011;57543;45.442;9.212;2023-04-02T14:01:07;12.13;;;6.93;;
70169;SDS011;57543;45.442;9.212;2023-04-02T14:04:12;13.38;;;7.88;;
70169;SDS011;57543;45.442;9.212;2023-04-02T14:20:58;11.82;;;7.30;;
70169;SDS011;57543;45.442;9.212;2023-04-02T14:30:53;8.47;;;3.60;;
70169;SDS011;57543;45.442;9.212;2023-04-02T14:34:07;6.97;;;3.90;;
70169;SDS011;57543;45.442;9.212;2023-04-02T14:40:38;6.50;;;3.38;;
70169;SDS011;57543;45.442;9.212;2023-04-02T14:44:04;5.15;;;3.45;;
70169;SDS011;57543;45.442;9.212;2023-04-02T14:47:14;5.87;;;2.73;;
70169;SDS011;57543;45.442;9.212;2023-04-02T14:50:26;5.90;;;3.05;;
70169;SDS011;57543;45.442;9.212;2023-04-02T14:53:40;5.05;;;3.00;;
70169;SDS011;57543;45.442;9.212;2023-04-02T15:00:31;6.35;;;3.10;;
70169;SDS011;57543;45.442;9.212;2023-04-02T15:03:41;5.80;;;3.13;;
70169;SDS011;57543;45.442;9.212;2023-04-02T15:07:02;6.05;;;3.35;;
70169;SDS011;57543;45.442;9.212;2023-04-02T15:10:15;6.40;;;3.42;;
70169;SDS011;57543;45.442;9.212;2023-04-02T15:14:05;5.00;;;2.80;;
70169;SDS011;57543;45.442;9.212;2023-04-02T15:16:53;6.55;;;3.78;;
70169;SDS011;57543;45.442;9.212;2023-04-02T15:20:01;6.87;;;3.20;;
70169;SDS011;57543;45.442;9.212;2023-04-02T15:23:40;7.10;;;3.35;;
70169;SDS011;57543;45.442;9.212;2023-04-02T15:30:37;6.70;;;3.03;;
70169;SDS011;57543;45.442;9.212;2023-04-02T15:33:47;6.68;;;3.72;;
70169;SDS011;57543;45.442;9.212;2023-04-02T15:37:11;5.70;;;2.70;;
70169;SDS011;57543;45.442;9.212;2023-04-02T15:43:44;7.28;;;3.55;;
70169;SDS011;57543;45.442;9.212;2023-04-02T15:47:07;6.10;;;3.05;;
70169;SDS011;57543;45.442;9.212;2023-04-02T15:50:41;6.40;;;3.40;;
70169;SDS011;57543;45.442;9.212;2023-04-02T15:53:52;5.63;;;2.80;;
70169;SDS011;57543;45.442;9.212;2023-04-02T16:01:05;5.82;;;3.22;;
70169;SDS011;57543;45.442;9.212;2023-04-02T16:07:48;8.43;;;5.00;;
70169;SDS011;57543;45.442;9.212;2023-04-02T16:11:04;8.37;;;4.50;;
70169;SDS011;57543;45.442;9.212;2023-04-02T16:14:21;6.30;;;4.07;;
70169;SDS011;57543;45.442;9.212;2023-04-02T16:17:30;6.22;;;3.75;;
70169;SDS011;57543;45.442;9.212;2023-04-02T16:20:40;10.55;;;5.93;;
70169;SDS011;57543;45.442;9.212;2023-04-02T16:23:48;6.15;;;3.45;;
70169;SDS011;57543;45.442;9.212;2023-04-02T16:30:34;5.20;;;3.30;;
70169;SDS011;57543;45.442;9.212;2023-04-02T16:41:21;5.60;;;2.97;;
70169;SDS011;57543;45.442;9.212;2023-04-02T16:44:19;5.63;;;2.73;;
70169;SDS011;57543;45.442;9.212;2023-04-02T16:47:39;4.78;;;3.00;;
70169;SDS011;57543;45.442;9.212;2023-04-02T17:00:34;5.40;;;2.50;;
70169;SDS011;57543;45.442;9.212;2023-04-02T17:13:25;4.95;;;2.90;;
70169;SDS011;57543;45.442;9.212;2023-04-02T17:16:35;5.67;;;2.40;;
70169;SDS011;57543;45.442;9.212;2023-04-02T17:19:47;4.65;;;2.20;;
70169;SDS011;57543;45.442;9.212;2023-04-02T17:22:54;5.05;;;2.80;;
70169;SDS011;57543;45.442;9.212;2023-04-02T17:26:03;5.38;;;2.60;;
70169;SDS011;57543;45.442;9.212;2023-04-02T17:29:12;4.38;;;2.50;;
70169;SDS011;57543;45.442;9.212;2023-04-02T17:32:28;5.17;;;2.43;;
70169;SDS011;57543;45.442;9.212;2023-04-02T17:35:40;5.70;;;2.53;;
70169;SDS011;57543;45.442;9.212;2023-04-02T17:45:50;6.43;;;2.70;;
70169;SDS011;57543;45.442;9.212;2023-04-02T17:49:11;4.73;;;2.23;;
70169;SDS011;57543;45.442;9.212;2023-04-02T17:52:43;4.40;;;2.75;;
70169;SDS011;57543;45.442;9.212;2023-04-02T18:02:37;5.53;;;2.67;;
70169;SDS011;57543;45.442;9.212;2023-04-02T18:05:56;5.60;;;2.20;;
70169;SDS011;57543;45.442;9.212;2023-04-02T18:12:40;5.72;;;2.70;;
70169;SDS011;57543;45.442;9.212;2023-04-02T18:16:01;4.93;;;2.60;;
70169;SDS011;57543;45.442;9.212;2023-04-02T18:19:30;4.75;;;2.10;;
70169;SDS011;57543;45.442;9.212;2023-04-02T18:26:49;4.55;;;2.53;;
70169;SDS011;57543;45.442;9.212;2023-04-02T18:34:26;5.80;;;2.63;;
70169;SDS011;57543;45.442;9.212;2023-04-02T18:40:55;5.37;;;2.80;;
70169;SDS011;57543;45.442;9.212;2023-04-02T18:48:12;4.95;;;2.70;;
70169;SDS011;57543;45.442;9.212;2023-04-02T18:51:18;5.00;;;2.80;;
70169;SDS011;57543;45.442;9.212;2023-04-02T18:54:26;7.57;;;3.45;;
70169;SDS011;57543;45.442;9.212;2023-04-02T18:57:35;6.87;;;3.10;;
70169;SDS011;57543;45.442;9.212;2023-04-02T19:00:42;7.68;;;3.20;;
70169;SDS011;57543;45.442;9.212;2023-04-02T19:03:51;6.18;;;3.03;;
70169;SDS011;57543;45.442;9.212;2023-04-02T19:07:04;5.28;;;2.63;;
70169;SDS011;57543;45.442;9.212;2023-04-02T19:13:36;7.10;;;3.10;;
70169;SDS011;57543;45.442;9.212;2023-04-02T19:16:43;6.65;;;3.60;;
70169;SDS011;57543;45.442;9.212;2023-04-02T19:20:05;6.00;;;3.08;;
70169;SDS011;57543;45.442;9.212;2023-04-02T19:26:25;7.28;;;3.33;;
70169;SDS011;57543;45.442;9.212;2023-04-02T19:36:29;5.82;;;3.03;;
70169;SDS011;57543;45.442;9.212;2023-04-02T19:39:51;4.80;;;2.55;;
70169;SDS011;57543;45.442;9.212;2023-04-02T19:42:59;5.07;;;2.83;;
70169;SDS011;57543;45.442;9.212;2023-04-02T19:46:03;5.10;;;2.70;;
70169;SDS011;57543;45.442;9.212;2023-04-02T19:49:09;6.03;;;3.45;;
70169;SDS011;57543;45.442;9.212;2023-04-02T19:52:16;6.03;;;3.05;;
70169;SDS011;57543;45.442;9.212;2023-04-02T19:55:20;6.15;;;3.38;;
70169;SDS011;57543;45.442;9.212;2023-04-02T19:58:28;7.05;;;3.03;;
70169;SDS011;57543;45.442;9.212;2023-04-02T20:01:33;9.07;;;3.00;;
70169;SDS011;57543;45.442;9.212;2023-04-02T20:04:37;5.18;;;2.80;;
70169;SDS011;57543;45.442;9.212;2023-04-02T20:07:40;4.30;;;2.53;;
70169;SDS011;57543;45.442;9.212;2023-04-02T20:10:44;5.82;;;3.10;;
70169;SDS011;57543;45.442;9.212;2023-04-02T20:13:48;5.63;;;3.30;;
70169;SDS011;57543;45.442;9.212;2023-04-02T20:16:52;5.40;;;3.30;;
70169;SDS011;57543;45.442;9.212;2023-04-02T20:19:56;7.65;;;3.45;;
70169;SDS011;57543;45.442;9.212;2023-04-02T20:22:59;6.53;;;3.28;;
70169;SDS011;57543;45.442;9.212;2023-04-02T20:26:03;6.43;;;3.13;;
70169;SDS011;57543;45.442;9.212;2023-04-02T20:29:07;7.03;;;3.85;;
70169;SDS011;57543;45.442;9.212;2023-04-02T20:32:11;8.10;;;4.27;;
70169;SDS011;57543;45.442;9.212;2023-04-02T20:35:15;7.68;;;3.53;;
70169;SDS011;57543;45.442;9.212;2023-04-02T20:38:19;6.68;;;3.33;;
70169;SDS011;57543;45.442;9.212;2023-04-02T20:41:22;6.53;;;3.60;;
70169;SDS011;57543;45.442;9.212;2023-04-02T20:44:26;6.38;;;3.20;;
70169;SDS011;57543;45.442;9.212;2023-04-02T20:47:31;5.80;;;3.23;;
70169;SDS011;57543;45.442;9.212;2023-04-02T20:50:34;5.93;;;3.20;;
70169;SDS011;57543;45.442;9.212;2023-04-02T20:53:38;6.28;;;3.28;;
70169;SDS011;57543;45.442;9.212;2023-04-02T20:56:42;6.97;;;3.70;;
70169;SDS011;57543;45.442;9.212;2023-04-02T20:59:46;5.75;;;3.40;;
70169;SDS011;57543;45.442;9.212;2023-04-02T21:02:50;5.57;;;3.13;;
70169;SDS011;57543;45.442;9.212;2023-04-02T21:05:53;7.63;;;3.22;;
70169;SDS011;57543;45.442;9.212;2023-04-02T21:08:57;6.10;;;3.05;;
70169;SDS011;57543;45.442;9.212;2023-04-02T21:12:02;5.68;;;3.03;;
70169;SDS011;57543;45.442;9.212;2023-04-02T21:15:06;6.20;;;3.05;;
70169;SDS011;57543;45.442;9.212;2023-04-02T21:18:10;6.07;;;3.10;;
70169;SDS011;57543;45.442;9.212;2023-04-02T21:21:13;4.75;;;2.85;;
70169;SDS011;57543;45.442;9.212;2023-04-02T21:24:17;6.55;;;3.10;;
70169;SDS011;57543;45.442;9.212;2023-04-02T21:27:21;5.93;;;2.75;;
70169;SDS011;57543;45.442;9.212;2023-04-02T21:30:28;5.75;;;2.95;;
70169;SDS011;57543;45.442;9.212;2023-04-02T21:33:34;5.97;;;3.30;;
70169;SDS011;57543;45.442;9.212;2023-04-02T21:36:43;5.72;;;3.10;;
70169;SDS011;57543;45.442;9.212;2023-04-02T21:39:48;5.45;;;3.10;;
70169;SDS011;57543;45.442;9.212;2023-04-02T21:42:52;5.10;;;2.70;;
70169;SDS011;57543;45.442;9.212;2023-04-02T21:45:57;5.75;;;2.88;;
70169;SDS011;57543;45.442;9.212;2023-04-02T21:49:01;5.43;;;3.30;;
70169;SDS011;57543;45.442;9.212;2023-04-02T21:52:06;6.32;;;3.60;;
70169;SDS011;57543;45.442;9.212;2023-04-02T21:55:09;5.68;;;2.97;;
70169;SDS011;57543;45.442;9.212;2023-04-02T21:58:12;5.47;;;3.15;;
70169;SDS011;57543;45.442;9.212;2023-04-02T22:01:16;7.55;;;3.03;;
70169;SDS011;57543;45.442;9.212;2023-04-02T22:04:22;8.87;;;3.73;;
70169;SDS011;57543;45.442;9.212;2023-04-02T22:07:27;6.50;;;3.40;;
70169;SDS011;57543;45.442;9.212;2023-04-02T22:10:31;7.22;;;3.65;;
70169;SDS011;57543;45.442;9.212;2023-04-02T22:13:35;5.80;;;3.47;;
70169;SDS011;57543;45.442;9.212;2023-04-02T22:16:40;6.70;;;3.38;;
70169;SDS011;57543;45.442;9.212;2023-04-02T22:19:44;7.00;;;3.63;;
70169;SDS011;57543;45.442;9.212;2023-04-02T22:22:49;7.05;;;3.80;;
70169;SDS011;57543;45.442;9.212;2023-04-02T22:25:53;6.65;;;3.88;;
70169;SDS011;57543;45.442;9.212;2023-04-02T22:28:58;6.30;;;3.72;;
70169;SDS011;57543;45.442;9.212;2023-04-02T22:32:02;7.70;;;3.63;;
70169;SDS011;57543;45.442;9.212;2023-04-02T22:35:05;6.97;;;3.60;;
70169;SDS011;57543;45.442;9.212;2023-04-02T22:38:09;7.25;;;4.28;;
70169;SDS011;57543;45.442;9.212;2023-04-02T22:41:14;9.20;;;4.65;;